createdAt,value
2019-04-10T00:01:01.987Z,90.70
2019-04-10T00:03:33.600Z,90.70
2019-04-10T00:06:02.579Z,90.30
2019-04-10T00:08:34.420Z,90.20
2019-04-10T00:11:03.228Z,90.40
2019-04-10T00:13:31.774Z,90.40
2019-04-10T00:16:00.297Z,90.20
2019-04-10T00:18:29.785Z,89.80
2019-04-10T00:20:58.670Z,90.10
2019-04-10T00:23:27.206Z,89.80
2019-04-10T00:25:55.735Z,89.40
2019-04-10T00:28:25.445Z,88.80
2019-04-10T00:30:54.143Z,89.20
2019-04-10T00:33:22.941Z,90.00
2019-04-10T00:35:51.926Z,89.70
2019-04-10T00:38:20.608Z,89.30
2019-04-10T00:40:49.933Z,89.80
2019-04-10T00:43:19.046Z,90.20
2019-04-10T00:45:47.688Z,90.50
2019-04-10T00:48:16.162Z,90.70
2019-04-10T00:50:44.736Z,90.40
2019-04-10T00:53:13.211Z,90.40
2019-04-10T00:55:41.939Z,90.30
2019-04-10T00:58:10.716Z,90.60
2019-04-10T01:00:39.300Z,90.60
2019-04-10T01:03:07.817Z,90.30
2019-04-10T01:05:36.292Z,90.00
2019-04-10T01:08:04.770Z,90.20
2019-04-10T01:10:33.297Z,90.30
2019-04-10T01:13:02.699Z,90.40
2019-04-10T01:15:31.284Z,90.10
2019-04-10T01:17:59.748Z,90.00
2019-04-10T01:20:29.261Z,89.70
2019-04-10T01:22:57.972Z,89.40
2019-04-10T01:25:26.556Z,89.40
2019-04-10T01:27:55.098Z,89.50
2019-04-10T01:30:24.357Z,90.20
2019-04-10T01:32:54.183Z,90.70
2019-04-10T01:35:22.954Z,90.20
2019-04-10T01:37:56.222Z,90.00
2019-04-10T01:40:21.780Z,89.80
2019-04-10T01:43:02.393Z,90.00
2019-04-10T01:45:21.662Z,90.60
2019-04-10T01:47:51.204Z,90.50
2019-04-10T01:50:20.123Z,90.10
2019-04-10T01:52:49.205Z,90.10
2019-04-10T01:55:25.314Z,90.00
2019-04-10T01:57:48.470Z,89.60
2019-04-10T02:00:19.535Z,89.00
2019-04-10T02:02:54.195Z,89.20
2019-04-10T02:05:22.852Z,90.10
2019-04-10T02:08:01.271Z,90.80
2019-04-10T02:10:21.772Z,91.00
2019-04-10T02:12:50.814Z,91.40
2019-04-10T02:15:19.713Z,91.80
2019-04-10T02:17:48.702Z,91.90
2019-04-10T02:20:19.494Z,92.00
2019-04-10T02:22:48.017Z,91.30
2019-04-10T02:25:17.600Z,90.80
2019-04-10T02:27:46.767Z,91.20
2019-04-10T02:30:17.545Z,91.20
2019-04-10T02:32:48.121Z,91.20
2019-04-10T02:35:17.656Z,91.10
2019-04-10T02:37:49.478Z,91.20
2019-04-10T02:40:17.020Z,90.50
2019-04-10T02:42:47.328Z,90.70
2019-04-10T02:45:17.093Z,91.40
2019-04-10T02:47:47.488Z,91.80
2019-04-10T02:50:16.570Z,92.10
2019-04-10T02:52:45.929Z,91.10
2019-04-10T02:55:16.777Z,90.60
2019-04-10T02:57:45.938Z,90.40
2019-04-10T03:00:17.807Z,90.40
2019-04-10T03:02:48.343Z,90.40
2019-04-10T03:05:19.897Z,90.70
2019-04-10T03:07:48.409Z,90.40
2019-04-10T03:10:25.193Z,90.10
2019-04-10T03:12:48.454Z,90.00
2019-04-10T03:15:19.557Z,89.80
2019-04-10T03:17:48.730Z,90.00
2019-04-10T03:20:18.749Z,90.60
2019-04-10T03:22:47.561Z,91.00
2019-04-10T03:25:17.812Z,91.10
2019-04-10T03:27:46.884Z,90.70
2019-04-10T03:30:15.686Z,90.90
2019-04-10T03:32:51.665Z,91.10
2019-04-10T03:35:26.978Z,91.80
2019-04-10T03:37:55.547Z,91.90
2019-04-10T03:40:25.593Z,91.90
2019-04-10T03:42:55.027Z,92.10
2019-04-10T03:45:24.320Z,92.10
2019-04-10T03:47:52.983Z,91.80
2019-04-10T03:50:21.611Z,91.90
2019-04-10T03:52:50.072Z,91.10
2019-04-10T03:55:18.900Z,90.60
2019-04-10T03:57:47.507Z,90.90
2019-04-10T04:00:18.143Z,90.60
2019-04-10T04:02:48.329Z,90.90
2019-04-10T04:05:16.856Z,91.50
2019-04-10T04:07:46.284Z,91.90
2019-04-10T04:10:16.264Z,91.40
2019-04-10T04:12:44.972Z,91.00
2019-04-10T04:15:13.648Z,90.60
2019-04-10T04:17:42.286Z,90.40
2019-04-10T04:20:11.297Z,90.20
2019-04-10T04:22:39.758Z,90.00
2019-04-10T04:25:08.696Z,89.80
2019-04-10T04:27:37.769Z,89.70
2019-04-10T04:30:08.489Z,89.90
2019-04-10T04:32:37.958Z,89.20
2019-04-10T04:35:06.652Z,89.10
2019-04-10T04:37:35.781Z,89.50
2019-04-10T04:40:05.668Z,90.70
2019-04-10T04:42:35.157Z,90.70
2019-04-10T04:45:05.996Z,90.20
2019-04-10T04:47:34.447Z,89.70
2019-04-10T04:50:03.608Z,89.70
2019-04-10T04:52:32.776Z,89.20
2019-04-10T04:55:01.935Z,89.10
2019-04-10T04:57:30.955Z,89.30
2019-04-10T05:00:01.140Z,89.00
2019-04-10T05:02:30.274Z,88.90
2019-04-10T05:05:00.300Z,89.80
2019-04-10T05:07:29.180Z,89.70
2019-04-10T05:09:59.920Z,90.40
2019-04-10T05:12:28.027Z,90.90
2019-04-10T05:14:57.647Z,90.00
2019-04-10T05:17:26.321Z,89.30
2019-04-10T05:19:57.179Z,88.40
2019-04-10T05:22:25.047Z,88.50
2019-04-10T05:24:54.394Z,87.20
2019-04-10T05:27:23.140Z,83.30
2019-04-10T05:29:51.650Z,81.80
2019-04-10T05:32:21.319Z,82.30
2019-04-10T05:34:50.405Z,81.50
2019-04-10T05:37:19.216Z,80.60
2019-04-10T05:39:50.765Z,81.70
2019-04-10T05:42:17.927Z,83.00
2019-04-10T05:44:46.407Z,80.60
2019-04-10T05:47:14.871Z,79.70
2019-04-10T05:49:44.932Z,79.30
2019-04-10T05:52:14.746Z,78.60
2019-04-10T05:54:43.804Z,78.60
2019-04-10T05:57:12.517Z,77.70
2019-04-10T05:59:41.044Z,78.90
2019-04-10T06:02:15.774Z,78.40
2019-04-10T06:04:46.489Z,78.30
2019-04-10T06:07:14.978Z,79.60
2019-04-10T06:09:53.995Z,79.10
2019-04-10T06:12:13.911Z,78.90
2019-04-10T06:14:42.553Z,78.50
2019-04-10T06:17:11.128Z,77.80
2019-04-10T06:19:40.552Z,77.20
2019-04-10T06:22:10.923Z,77.00
2019-04-10T06:24:40.424Z,76.30
2019-04-10T06:27:10.254Z,75.30
2019-04-10T06:29:39.318Z,75.20
2019-04-10T06:32:07.987Z,75.60
2019-04-10T06:34:36.527Z,74.30
2019-04-10T06:37:06.132Z,74.10
2019-04-10T06:39:35.200Z,73.50
2019-04-10T06:42:04.500Z,74.10
2019-04-10T06:44:34.171Z,72.90
2019-04-10T06:47:02.768Z,72.90
2019-04-10T06:49:31.328Z,72.10
2019-04-10T06:51:59.812Z,72.10
2019-04-10T06:54:28.877Z,73.50
2019-04-10T06:56:58.598Z,72.40
2019-04-10T06:59:28.259Z,71.70
2019-04-10T07:02:11.369Z,71.60
2019-04-10T07:04:28.714Z,72.40
2019-04-10T07:07:04.510Z,72.70
2019-04-10T07:09:27.599Z,72.30
2019-04-10T07:11:59.848Z,72.80
2019-04-10T07:14:26.784Z,72.80
2019-04-10T07:16:55.415Z,72.30
2019-04-10T07:19:24.217Z,72.40
2019-04-10T07:21:52.859Z,72.40
2019-04-10T07:24:21.436Z,71.30
2019-04-10T07:26:50.987Z,69.70
2019-04-10T07:29:21.087Z,68.90
2019-04-10T07:31:50.905Z,69.10
2019-04-10T07:34:23.865Z,70.70
2019-04-10T07:36:51.947Z,69.80
2019-04-10T07:39:19.984Z,70.10
2019-04-10T07:41:49.324Z,69.60
2019-04-10T07:44:19.483Z,69.90
2019-04-10T07:46:48.853Z,69.90
2019-04-10T07:49:20.541Z,69.30
2019-04-10T07:51:49.564Z,69.10
2019-04-10T07:54:20.985Z,68.30
2019-04-10T07:56:49.388Z,68.90
2019-04-10T07:59:18.472Z,70.00
2019-04-10T08:01:50.149Z,70.60
2019-04-10T08:04:18.631Z,69.70
2019-04-10T08:06:47.131Z,70.30
2019-04-10T08:09:16.520Z,69.50
2019-04-10T08:11:45.395Z,67.60
2019-04-10T08:14:14.830Z,67.90
2019-04-10T08:16:43.635Z,67.10
2019-04-10T08:19:12.431Z,67.30
2019-04-10T08:21:42.267Z,67.90
2019-04-10T08:24:11.439Z,71.00
2019-04-10T08:26:40.954Z,71.00
2019-04-10T08:29:09.929Z,72.40
2019-04-10T08:31:39.548Z,73.10
2019-04-10T08:34:09.647Z,74.20
2019-04-10T08:36:39.383Z,74.60
2019-04-10T08:39:08.188Z,76.20
2019-04-10T08:41:37.246Z,76.40
2019-04-10T08:44:06.474Z,75.10
2019-04-10T08:46:35.726Z,76.50
2019-04-10T08:49:05.619Z,79.00
2019-04-10T08:51:35.300Z,77.70
2019-04-10T08:54:03.834Z,80.00
2019-04-10T08:56:32.367Z,80.50
2019-04-10T08:59:00.819Z,80.40
2019-04-10T09:01:29.634Z,79.50
2019-04-10T09:03:58.092Z,80.70
2019-04-10T09:06:27.254Z,80.10
2019-04-10T09:08:57.119Z,76.10
2019-04-10T09:11:28.445Z,75.60
2019-04-10T09:13:56.905Z,77.60
2019-04-10T09:16:26.665Z,78.30
2019-04-10T09:18:55.768Z,77.80
2019-04-10T09:21:24.392Z,77.80
2019-04-10T09:23:56.013Z,79.30
2019-04-10T09:26:23.046Z,80.30
2019-04-10T09:28:52.856Z,79.00
2019-04-10T09:31:31.515Z,78.90
2019-04-10T09:33:59.606Z,78.40
2019-04-10T09:36:29.090Z,77.90
2019-04-10T09:39:01.244Z,77.80
2019-04-10T09:41:32.034Z,78.30
2019-04-10T09:44:00.791Z,78.70
2019-04-10T09:46:31.040Z,80.80
2019-04-10T09:49:02.593Z,81.30
2019-04-10T09:51:31.889Z,81.40
2019-04-10T09:54:02.284Z,82.20
2019-04-10T09:56:30.732Z,82.50
2019-04-10T09:59:00.956Z,81.90
2019-04-10T10:01:30.306Z,81.90
2019-04-10T10:03:59.251Z,81.80
2019-04-10T10:06:33.085Z,81.50
2019-04-10T10:08:58.460Z,81.70
2019-04-10T10:11:27.257Z,79.80
2019-04-10T10:13:56.433Z,79.80
2019-04-10T10:16:25.472Z,79.10
2019-04-10T10:18:54.317Z,78.20
2019-04-10T10:21:24.034Z,77.40
2019-04-10T10:23:53.974Z,76.90
2019-04-10T10:26:23.868Z,76.30
2019-04-10T10:28:52.655Z,75.40
2019-04-10T10:31:22.116Z,76.50
2019-04-10T10:33:50.855Z,76.00
2019-04-10T10:36:19.958Z,76.90
2019-04-10T10:38:56.981Z,75.60
2019-04-10T10:41:20.219Z,74.50
2019-04-10T10:43:48.910Z,73.20
2019-04-10T10:46:17.651Z,73.60
2019-04-10T10:48:46.217Z,72.60
2019-04-10T10:51:14.890Z,72.20
2019-04-10T10:53:44.103Z,73.00
2019-04-10T10:56:13.919Z,73.90
2019-04-10T10:58:42.587Z,74.30
2019-04-10T11:01:11.603Z,74.80
2019-04-10T11:03:40.549Z,73.50
2019-04-10T11:06:09.258Z,73.50
2019-04-10T11:08:37.821Z,74.50
2019-04-10T11:11:06.323Z,75.40
2019-04-10T11:13:34.826Z,76.10
2019-04-10T11:16:05.637Z,75.90
2019-04-10T11:18:34.815Z,75.40
2019-04-10T11:21:08.031Z,76.90
2019-04-10T11:23:34.200Z,76.50
2019-04-10T11:26:04.553Z,77.40
2019-04-10T11:28:33.791Z,78.00
2019-04-10T11:31:02.844Z,78.70
2019-04-10T11:33:32.868Z,79.50
2019-04-10T11:36:01.638Z,79.90
2019-04-10T11:38:30.168Z,79.50
2019-04-10T11:41:00.104Z,80.10
2019-04-10T11:43:30.247Z,80.40
2019-04-10T11:46:02.206Z,79.90
2019-04-10T11:48:29.505Z,79.50
2019-04-10T11:50:59.707Z,78.60
2019-04-10T11:53:28.893Z,79.30
2019-04-10T11:56:00.154Z,78.70
2019-04-10T11:58:28.939Z,78.50
2019-04-10T12:00:59.614Z,79.60
2019-04-10T12:03:28.250Z,79.70
2019-04-10T12:05:57.801Z,79.00
2019-04-10T12:08:50.330Z,77.80
2019-04-10T12:13:27.530Z,77.80
2019-04-10T12:15:56.730Z,78.70
2019-04-10T12:18:25.324Z,78.30
2019-04-10T12:20:53.803Z,78.30
2019-04-10T12:23:23.116Z,77.90
2019-04-10T12:25:52.155Z,77.40
2019-04-10T12:28:22.114Z,76.20
2019-04-10T12:30:51.297Z,75.00
2019-04-10T12:33:21.201Z,74.30
2019-04-10T12:35:50.041Z,73.70
2019-04-10T12:38:19.300Z,73.00
2019-04-10T12:40:48.026Z,72.20
2019-04-10T12:43:16.784Z,72.40
2019-04-10T12:45:46.439Z,72.60
2019-04-10T12:48:34.742Z,71.60
2019-04-10T12:51:03.547Z,71.50
2019-04-10T12:53:32.049Z,69.80
2019-04-10T12:56:00.499Z,67.70
2019-04-10T12:58:29.039Z,66.90
2019-04-10T13:00:58.365Z,67.00
2019-04-10T13:03:27.353Z,66.50
2019-04-10T13:05:55.979Z,65.70
2019-04-10T13:08:31.395Z,66.00
2019-04-10T13:10:54.645Z,66.40
2019-04-10T13:13:24.229Z,66.10
2019-04-10T13:15:54.095Z,65.30
2019-04-10T13:18:22.844Z,65.10
2019-04-10T13:20:51.390Z,65.10
2019-04-10T13:23:20.474Z,65.50
2019-04-10T13:25:55.528Z,67.50
2019-04-10T13:28:19.632Z,69.10
2019-04-10T13:30:53.176Z,69.30
2019-04-10T13:33:18.384Z,69.10
2019-04-10T13:35:46.845Z,69.70
2019-04-10T13:38:23.960Z,69.10
2019-04-10T13:40:45.923Z,70.20
2019-04-10T13:43:15.875Z,69.40
2019-04-10T13:45:45.736Z,69.50
2019-04-10T13:48:14.585Z,68.10
2019-04-10T13:50:43.218Z,68.00
2019-04-10T13:53:11.666Z,67.70
2019-04-10T13:55:40.154Z,68.70
2019-04-10T13:58:08.834Z,68.30
2019-04-10T14:00:40.739Z,67.60
2019-04-10T14:03:10.152Z,68.50
2019-04-10T14:05:39.055Z,67.80
2019-04-10T14:08:08.429Z,68.20
2019-04-10T14:10:40.496Z,68.10
2019-04-10T14:13:07.498Z,68.90
2019-04-10T14:15:36.231Z,68.20
2019-04-10T14:18:06.126Z,67.30
2019-04-10T14:20:35.424Z,68.00
2019-04-10T14:23:06.348Z,68.60
2019-04-10T14:25:49.772Z,68.20
2019-04-10T14:28:20.934Z,69.10
2019-04-10T14:30:49.641Z,68.20
2019-04-10T14:33:19.114Z,68.30
2019-04-10T14:35:47.920Z,68.80
2019-04-10T14:38:17.014Z,68.40
2019-04-10T14:40:46.065Z,68.80
2019-04-10T14:43:15.072Z,68.70
2019-04-10T14:45:43.767Z,68.80
2019-04-10T14:48:12.428Z,68.30
2019-04-10T14:50:41.790Z,68.00
2019-04-10T14:53:11.680Z,67.70
2019-04-10T14:55:40.411Z,67.00
2019-04-10T14:58:20.459Z,67.10
2019-04-10T15:00:41.303Z,66.90
2019-04-10T15:03:09.831Z,67.30
2019-04-10T15:05:45.442Z,67.80
2019-04-10T15:08:09.234Z,68.70
2019-04-10T15:10:37.934Z,69.10
2019-04-10T15:13:10.214Z,68.60
2019-04-10T15:15:36.643Z,68.80
2019-04-10T15:18:06.567Z,68.70
2019-04-10T15:20:35.604Z,68.90
2019-04-10T15:23:04.996Z,68.70
2019-04-10T15:25:33.700Z,68.60
2019-04-10T15:28:02.273Z,68.40
2019-04-10T15:30:30.883Z,69.00
2019-04-10T15:33:00.365Z,69.40
2019-04-10T15:35:29.091Z,68.30
2019-04-10T15:37:57.814Z,67.50
2019-04-10T15:40:27.668Z,67.60
2019-04-10T15:42:56.777Z,68.00
2019-04-10T15:45:26.040Z,68.30
2019-04-10T15:47:57.533Z,69.10
2019-04-10T15:50:24.776Z,68.70
2019-04-10T15:52:53.653Z,68.90
2019-04-10T15:55:22.379Z,68.70
2019-04-10T15:57:55.238Z,68.80
2019-04-10T16:00:21.260Z,68.90
2019-04-10T16:02:50.950Z,69.30
2019-04-10T16:05:19.727Z,70.10
2019-04-10T16:07:48.994Z,69.40
2019-04-10T16:10:28.895Z,70.00
2019-04-10T16:12:59.734Z,69.80
2019-04-10T16:15:30.010Z,70.40
2019-04-10T16:18:03.205Z,71.20
2019-04-10T16:20:33.709Z,70.80
2019-04-10T16:23:08.065Z,70.80
2019-04-10T16:25:36.852Z,70.90
2019-04-10T16:28:06.286Z,71.00
2019-04-10T16:30:35.053Z,71.30
2019-04-10T16:33:04.848Z,71.90
2019-04-10T16:35:35.365Z,72.30
2019-04-10T16:38:05.213Z,73.00
2019-04-10T16:40:36.151Z,73.50
2019-04-10T16:43:06.114Z,72.70
2019-04-10T16:45:34.950Z,74.30
2019-04-10T16:48:03.925Z,74.30
2019-04-10T16:50:32.536Z,74.50
2019-04-10T16:53:01.358Z,75.00
2019-04-10T16:55:32.537Z,75.30
2019-04-10T16:58:01.227Z,76.70
2019-04-10T17:00:31.115Z,76.70
2019-04-10T17:02:59.762Z,76.90
2019-04-10T17:05:28.275Z,77.10
2019-04-10T17:07:57.329Z,78.60
2019-04-10T17:10:29.114Z,78.70
2019-04-10T17:12:58.340Z,78.80
2019-04-10T17:15:28.072Z,80.60
2019-04-10T17:17:56.972Z,79.50
2019-04-10T17:20:34.856Z,79.50
2019-04-10T17:22:58.770Z,80.30
2019-04-10T17:25:33.899Z,79.30
2019-04-10T17:28:03.758Z,79.90
2019-04-10T17:30:33.790Z,80.20
2019-04-10T17:33:02.828Z,80.50
2019-04-10T17:35:31.695Z,80.20
2019-04-10T17:38:00.510Z,81.60
2019-04-10T17:40:35.428Z,81.70
2019-04-10T17:42:59.265Z,80.70
2019-04-10T17:45:30.883Z,80.20
2019-04-10T17:48:00.816Z,80.30
2019-04-10T17:50:30.088Z,79.70
2019-04-10T17:52:58.978Z,81.30
2019-04-10T17:55:27.558Z,80.90
2019-04-10T17:57:57.691Z,81.20
2019-04-10T18:00:31.249Z,81.20
2019-04-10T18:03:01.129Z,80.50
2019-04-10T18:05:30.756Z,80.30
2019-04-10T18:08:00.693Z,80.80
2019-04-10T18:10:41.189Z,79.70
2019-04-10T18:12:59.504Z,80.30
2019-04-10T18:15:28.254Z,80.20
2019-04-10T18:17:57.644Z,80.80
2019-04-10T18:20:26.348Z,79.90
2019-04-10T18:22:55.325Z,80.10
2019-04-10T18:25:24.084Z,80.70
2019-04-10T18:27:52.553Z,80.20
2019-04-10T18:30:21.764Z,80.90
2019-04-10T18:32:50.223Z,82.10
2019-04-10T18:35:20.204Z,83.00
2019-04-10T18:37:49.094Z,83.10
2019-04-10T18:40:19.001Z,83.70
2019-04-10T18:42:49.135Z,83.70
2019-04-10T18:45:17.615Z,85.70
2019-04-10T18:47:46.153Z,84.20
2019-04-10T18:50:16.040Z,85.00
2019-04-10T18:52:45.642Z,85.60
2019-04-10T18:55:14.292Z,86.50
2019-04-10T18:57:43.194Z,84.60
2019-04-10T19:00:20.248Z,84.70
2019-04-10T19:02:59.258Z,84.20
2019-04-10T19:05:38.431Z,84.70
2019-04-10T19:08:07.100Z,86.80
2019-04-10T19:10:36.576Z,86.10
2019-04-10T19:13:05.559Z,86.50
2019-04-10T19:15:35.068Z,85.80
2019-04-10T19:18:03.845Z,86.10
2019-04-10T19:20:33.076Z,85.50
2019-04-10T19:23:03.193Z,85.80
2019-04-10T19:25:32.495Z,86.50
2019-04-10T19:28:01.266Z,87.10
2019-04-10T19:30:34.163Z,86.50
2019-04-10T19:33:03.842Z,87.20
2019-04-10T19:35:32.331Z,87.00
2019-04-10T19:38:01.034Z,86.80
2019-04-10T19:40:32.012Z,86.10
2019-04-10T19:43:01.852Z,85.70
2019-04-10T19:45:32.077Z,86.80
2019-04-10T19:48:01.281Z,86.30
2019-04-10T19:50:29.818Z,87.20
2019-04-10T19:52:58.296Z,87.20
2019-04-10T19:55:27.477Z,86.70
2019-04-10T19:57:56.091Z,87.30
2019-04-10T20:00:26.309Z,87.50
2019-04-10T20:02:57.778Z,87.50
2019-04-10T20:05:27.241Z,87.70
2019-04-10T20:07:57.493Z,87.10
2019-04-10T20:10:25.952Z,87.60
2019-04-10T20:12:55.144Z,87.70
2019-04-10T20:15:24.700Z,88.20
2019-04-10T20:17:57.558Z,88.30
2019-04-10T20:20:26.985Z,88.70
2019-04-10T20:22:55.668Z,88.50
2019-04-10T20:25:26.258Z,88.70
2019-04-10T20:27:56.397Z,88.90
2019-04-10T20:30:26.510Z,88.40
2019-04-10T20:32:55.047Z,88.20
2019-04-10T20:35:25.042Z,87.70
2019-04-10T20:37:53.710Z,88.40
2019-04-10T20:40:25.535Z,88.60
2019-04-10T20:42:52.432Z,88.70
2019-04-10T20:45:21.544Z,88.30
2019-04-10T20:47:50.384Z,88.50
2019-04-10T20:50:19.669Z,88.10
2019-04-10T20:52:48.357Z,87.80
2019-04-10T20:55:17.472Z,87.60
2019-04-10T20:57:46.286Z,86.70
2019-04-10T21:00:20.365Z,88.00
2019-04-10T21:02:48.934Z,88.20
2019-04-10T21:05:17.996Z,87.80
2019-04-10T21:07:46.713Z,86.50
2019-04-10T21:10:15.186Z,86.00
2019-04-10T21:12:44.140Z,87.00
2019-04-10T21:15:13.194Z,86.20
2019-04-10T21:17:42.445Z,87.50
2019-04-10T21:20:13.217Z,85.70
2019-04-10T21:22:41.440Z,86.20
2019-04-10T21:25:12.651Z,85.40
2019-04-10T21:27:48.543Z,84.10
2019-04-10T21:30:20.425Z,84.10
2019-04-10T21:33:08.927Z,83.30
2019-04-10T21:35:38.910Z,83.20
2019-04-10T21:38:07.438Z,83.60
2019-04-10T21:40:35.974Z,84.00
2019-04-10T21:43:04.457Z,83.40
2019-04-10T21:45:35.023Z,84.20
2019-04-10T21:48:12.524Z,82.30
2019-04-10T21:50:41.777Z,82.40
2019-04-10T21:53:10.348Z,82.30
2019-04-10T21:55:39.599Z,82.10
2019-04-10T21:58:08.265Z,82.40
2019-04-10T22:00:57.216Z,82.10
2019-04-10T22:03:28.221Z,82.20
2019-04-10T22:06:05.751Z,82.10
2019-04-10T22:08:42.149Z,81.20
2019-04-10T22:11:12.847Z,81.50
2019-04-10T22:13:41.477Z,82.70
2019-04-10T22:16:11.583Z,83.20
2019-04-10T22:18:41.255Z,83.40
2019-04-10T22:21:10.300Z,83.20
2019-04-10T22:23:38.831Z,83.50
2019-04-10T22:26:07.375Z,82.50
2019-04-10T22:28:35.861Z,81.60
2019-04-10T22:31:04.325Z,81.20
2019-04-10T22:33:32.805Z,81.60
2019-04-10T22:36:02.897Z,81.50
2019-04-10T22:38:31.427Z,82.30
2019-04-10T22:41:00.221Z,81.80
2019-04-10T22:43:30.053Z,81.70
2019-04-10T22:45:58.669Z,81.70
2019-04-10T22:48:27.177Z,82.00
2019-04-10T22:50:55.788Z,81.80
2019-04-10T22:53:25.457Z,82.00
2019-04-10T22:55:54.289Z,82.00
2019-04-10T22:58:22.852Z,81.80
2019-04-10T23:00:51.373Z,82.00
2019-04-10T23:03:22.315Z,81.80
2019-04-10T23:05:51.039Z,81.70
2019-04-10T23:08:19.854Z,81.80
2019-04-10T23:10:48.906Z,82.50
2019-04-10T23:13:18.113Z,82.50
2019-04-10T23:15:47.374Z,82.50
2019-04-10T23:18:21.693Z,82.50
2019-04-10T23:20:54.230Z,82.30
2019-04-10T23:23:23.130Z,82.60
2019-04-10T23:25:52.962Z,82.30
2019-04-10T23:28:21.688Z,82.50
2019-04-10T23:30:50.955Z,82.60
2019-04-10T23:33:19.765Z,83.10
2019-04-10T23:35:48.263Z,82.50
2019-04-10T23:38:17.498Z,82.50
2019-04-10T23:40:47.212Z,83.60
2019-04-10T23:43:18.098Z,82.70
2019-04-10T23:45:46.261Z,82.70
2019-04-10T23:48:17.648Z,82.10
2019-04-10T23:50:46.173Z,82.70
2019-04-10T23:53:16.450Z,82.30
2019-04-10T23:55:46.123Z,82.40
2019-04-10T23:58:15.888Z,82.90
